Terminal Aerodrome Forecast
Issued by NWS Newport/Morehead City, NC

Home | Current Version | Previous Version | Graphics & Text | Print | Product List | Glossary On
Versions: 1 2 3 4 5 6 7 8 9 10 11 12 13 14 15 16 17 18 19 20 21 22
828
FTUS42 KMHX 301000 AAA
TAFEWN
TAF AMD
KEWN 301000Z 3010/3106 03003KT 5SM BR SCT007 BKN015
     FM301300 04007KT P6SM SCT015 BKN040
     FM301700 04009KT P6SM VCSH BKN040
     FM302200 04005KT P6SM BKN040=

USA.gov is the U.S. government's official web portal to all federal, state and local government web resources and services.